Time;durP1;ratioP1;P1;durP2;ratioP2;P2;SDS_P1;SDS_P2;PMS_P1;PMS_P2;Temp;Humidity;BMP_temperature;BMP_pressure;BME280_temperature;BME280_humidity;BME280_pressure;Samples;Min_cycle;Max_cycle;Signal;HPM_P1;HPM_P2
2022/02/04 00:25:15;;;;;;;99.05;75.70;;;7.40;99.90;;;;;;4883488;29;20197;-85
2022/02/04 00:27:48;;;;;;;107.05;94.38;;;7.40;99.90;;;;;;4883819;29;20159;-86
2022/02/04 00:30:25;;;;;;;103.18;90.70;;;7.40;99.90;;;;;;4884106;29;20197;-86
2022/02/04 00:32:53;;;;;;;104.90;93.53;;;7.40;99.90;;;;;;4881780;29;20530;-86
2022/02/04 00:35:35;;;;;;;103.80;92.38;;;7.50;99.90;;;;;;4884424;29;20206;-86
2022/02/04 00:38:06;;;;;;;108.18;96.65;;;7.50;99.90;;;;;;4886916;29;20155;-86
2022/02/04 00:40:39;;;;;;;127.35;114.80;;;7.50;99.90;;;;;;4887235;29;20178;-86
2022/02/04 00:43:09;;;;;;;100.40;87.75;;;7.50;99.90;;;;;;4884905;29;20171;-84
2022/02/04 00:48:19;;;;;;;112.35;100.82;;;7.50;99.90;;;;;;4883421;29;20171;-84
2022/02/04 00:50:56;;;;;;;103.75;92.47;;;7.50;99.90;;;;;;4882889;29;20195;-84
2022/02/04 00:53:32;;;;;;;109.47;97.78;;;7.50;99.90;;;;;;4883316;29;20154;-84
2022/02/04 00:56:13;;;;;;;129.30;116.88;;;7.50;99.90;;;;;;4883213;29;20197;-85
2022/02/04 01:28:44;;;;;;;98.10;83.47;;;7.50;99.90;;;;;;4881166;29;20186;-87
2022/02/04 01:31:19;;;;;;;101.65;90.35;;;7.60;99.90;;;;;;4884151;29;20574;-86
2022/02/04 01:33:48;;;;;;;99.40;88.15;;;7.50;99.90;;;;;;4884969;29;20261;-86
2022/02/04 01:36:15;;;;;;;95.20;77.32;;;7.60;99.90;;;;;;4885967;29;20590;-86
2022/02/04 01:38:41;;;;;;;94.50;68.22;;;7.70;99.90;;;;;;4883950;29;20175;-87
2022/02/04 01:41:08;;;;;;;91.72;63.08;;;7.80;99.90;;;;;;4884375;29;20178;-86
2022/02/04 01:43:43;;;;;;;88.13;52.50;;;7.80;99.90;;;;;;4884386;29;20175;-86
2022/02/04 01:46:11;;;;;;;85.28;48.47;;;7.70;99.90;;;;;;4885021;29;20205;-87
2022/02/04 01:48:38;;;;;;;91.43;66.78;;;7.80;99.90;;;;;;4885357;29;20186;-87
2022/02/04 01:51:06;;;;;;;93.28;64.60;;;7.80;99.90;;;;;;4884605;29;20198;-86
2022/02/04 01:53:33;;;;;;;94.30;72.50;;;7.70;99.90;;;;;;4946768;23;20703;-86
2022/02/04 01:56:02;;;;;;;91.82;64.55;;;7.80;99.90;;;;;;4880888;29;20242;-86
2022/02/04 01:58:34;;;;;;;97.43;70.18;;;7.70;99.90;;;;;;4880765;29;20215;-86
2022/02/04 02:01:00;;;;;;;89.47;58.38;;;7.80;99.90;;;;;;4879480;29;20215;-86
2022/02/04 02:03:27;;;;;;;86.67;53.47;;;7.70;99.90;;;;;;4880586;29;20163;-86
2022/02/04 02:05:57;;;;;;;82.60;41.88;;;7.70;99.90;;;;;;4879789;29;20443;-86
2022/02/04 02:08:23;;;;;;;83.55;45.97;;;7.80;99.90;;;;;;4881175;29;20539;-86
2022/02/04 02:10:50;;;;;;;80.97;36.37;;;7.80;99.90;;;;;;4879557;29;20251;-86
2022/02/04 02:16:43;;;;;;;76.93;25.48;;;7.80;99.90;;;;;;4908185;23;20230;-86
2022/02/04 02:36:05;;;;;;;75.82;18.27;;;7.80;99.90;;;;;;4880816;29;20246;-85
2022/02/04 02:39:13;;;;;;;74.88;19.30;;;7.80;99.90;;;;;;4880444;29;20265;-86
2022/02/04 02:46:48;;;;;;;74.25;15.57;;;7.80;99.90;;;;;;4880191;29;20238;-86
2022/02/04 02:51:59;;;;;;;76.10;21.65;;;7.80;99.90;;;;;;4880031;29;20147;-86
2022/02/04 03:02:11;;;;;;;76.60;19.60;;;7.70;99.90;;;;;;4880400;29;20190;-86
2022/02/04 03:04:37;;;;;;;75.80;19.90;;;7.80;99.90;;;;;;4878761;29;20258;-85
2022/02/04 03:07:03;;;;;;;78.50;29.47;;;7.80;99.90;;;;;;4879742;29;20178;-86
2022/02/04 03:09:29;;;;;;;77.57;27.17;;;7.70;99.90;;;;;;4879732;29;20279;-86
2022/02/04 03:11:55;;;;;;;76.90;21.23;;;7.80;99.90;;;;;;4878483;29;20958;-86
2022/02/04 03:14:20;;;;;;;75.97;21.27;;;7.80;99.90;;;;;;4879995;29;20174;-86
2022/02/04 03:16:47;;;;;;;78.10;26.53;;;7.90;99.90;;;;;;4879694;29;20192;-86
2022/02/04 03:19:14;;;;;;;77.97;28.73;;;8.00;99.90;;;;;;4879641;29;20241;-86
2022/02/04 03:21:43;;;;;;;82.15;37.08;;;7.90;99.90;;;;;;4879647;29;20173;-86
2022/02/04 03:24:16;;;;;;;79.22;32.88;;;7.90;99.90;;;;;;4878599;29;20171;-86
2022/02/04 03:26:49;;;;;;;82.72;37.10;;;7.90;99.90;;;;;;4879926;29;20191;-85
2022/02/04 03:29:21;;;;;;;82.35;38.92;;;8.00;99.90;;;;;;4878321;29;20265;-86
2022/02/04 03:31:54;;;;;;;80.45;35.25;;;7.90;99.90;;;;;;4880267;29;20147;-86
2022/02/04 03:34:23;;;;;;;79.07;32.40;;;7.90;99.90;;;;;;4879494;29;20147;-86
2022/02/04 03:36:48;;;;;;;79.75;33.35;;;7.90;99.90;;;;;;4880007;29;20191;-86
2022/02/04 03:39:14;;;;;;;74.80;19.43;;;8.00;99.90;;;;;;4878917;29;20166;-86
2022/02/04 03:41:40;;;;;;;75.53;19.30;;;7.90;99.90;;;;;;4879208;29;20966;-86
2022/02/04 03:44:06;;;;;;;79.93;23.70;;;7.90;99.90;;;;;;4879404;29;20407;-86
2022/02/04 03:46:32;;;;;;;74.38;19.70;;;7.90;99.90;;;;;;4878378;29;20218;-86
2022/02/04 03:49:18;;;;;;;75.53;22.60;;;7.90;99.90;;;;;;4878102;29;20197;-86
2022/02/04 03:51:44;;;;;;;80.00;29.40;;;7.90;99.90;;;;;;4878996;29;20227;-86
2022/02/04 03:54:13;;;;;;;84.45;45.60;;;7.80;99.90;;;;;;4878406;29;20513;-86
2022/02/04 03:56:42;;;;;;;92.78;70.50;;;7.80;99.90;;;;;;4879277;29;20167;-86
2022/02/04 03:59:15;;;;;;;108.90;96.38;;;7.80;99.90;;;;;;4879522;29;20171;-86
2022/02/04 04:01:41;;;;;;;109.00;96.72;;;7.80;99.90;;;;;;4879775;29;20163;-85
2022/02/04 04:04:07;;;;;;;96.40;82.03;;;7.80;99.90;;;;;;4879342;29;20171;-86
2022/02/04 04:06:35;;;;;;;96.07;78.07;;;7.80;99.90;;;;;;4879193;29;20190;-86
2022/02/04 04:09:04;;;;;;;106.82;94.35;;;7.80;99.90;;;;;;4879258;29;20206;-86
2022/02/04 04:11:30;;;;;;;124.28;111.85;;;7.80;99.90;;;;;;4881590;29;20202;-86
2022/02/04 04:13:56;;;;;;;115.33;103.70;;;7.80;99.90;;;;;;4881880;29;20170;-86
2022/02/04 04:16:21;;;;;;;112.73;100.43;;;7.80;99.90;;;;;;4881434;29;20203;-86
2022/02/04 04:19:02;;;;;;;128.37;115.90;;;7.80;99.90;;;;;;4881435;29;20167;-86
2022/02/04 04:21:28;;;;;;;111.93;100.60;;;7.80;99.90;;;;;;4881886;29;20535;-86
2022/02/04 04:24:02;;;;;;;118.53;106.97;;;7.80;99.90;;;;;;4881615;29;20178;-86
2022/02/04 04:26:31;;;;;;;117.35;105.63;;;7.80;99.90;;;;;;4882691;29;20200;-86
2022/02/04 04:29:00;;;;;;;123.30;111.65;;;7.80;99.90;;;;;;4882545;29;20174;-86
2022/02/04 04:31:25;;;;;;;130.70;118.43;;;7.70;99.90;;;;;;4881722;29;20202;-86
2022/02/04 04:33:51;;;;;;;123.93;111.87;;;7.70;99.90;;;;;;4881280;29;20691;-86
2022/02/04 04:36:21;;;;;;;103.63;92.63;;;7.80;99.90;;;;;;4881033;29;20187;-86
2022/02/04 04:38:54;;;;;;;117.63;106.22;;;7.80;99.90;;;;;;4882347;29;20147;-86
2022/02/04 04:42:12;;;;;;;105.20;94.20;;;7.80;99.90;;;;;;4881499;29;20655;-86
2022/02/04 05:25:54;;;;;;;89.97;64.35;;;7.80;99.90;;;;;;4882447;29;20182;-86
2022/02/04 05:30:56;;;;;;;80.38;39.45;;;7.90;99.90;;;;;;4881724;29;20230;-86
2022/02/04 05:33:22;;;;;;;81.03;40.23;;;7.90;99.90;;;;;;4881777;29;20193;-86
2022/02/04 05:35:48;;;;;;;80.60;37.43;;;7.90;99.90;;;;;;4879868;29;20433;-86
2022/02/04 05:38:21;;;;;;;81.18;37.15;;;7.90;99.90;;;;;;4880022;29;20210;-86
2022/02/04 05:40:55;;;;;;;78.13;29.15;;;7.80;99.90;;;;;;4881473;29;20178;-86
2022/02/04 05:43:53;;;;;;;77.70;27.50;;;7.80;99.90;;;;;;4882080;29;20643;-86
2022/02/04 05:46:26;;;;;;;78.78;34.67;;;7.90;99.90;;;;;;4879550;29;20230;-86
2022/02/04 05:48:54;;;;;;;78.25;30.58;;;7.90;99.90;;;;;;4881479;29;20178;-86
2022/02/04 05:54:15;;;;;;;77.57;23.45;;;8.00;99.90;;;;;;4881376;29;20158;-86
2022/02/04 05:59:43;;;;;;;92.57;63.92;;;7.90;99.90;;;;;;4881302;29;20638;-86
2022/02/04 06:02:47;;;;;;;95.18;71.88;;;7.80;99.90;;;;;;4881272;29;20230;-86
2022/02/04 06:05:47;;;;;;;122.15;110.72;;;7.80;99.90;;;;;;4879388;29;20194;-86
2022/02/04 06:08:34;;;;;;;114.03;102.47;;;7.70;99.90;;;;;;4880808;29;20175;-86
2022/02/04 06:14:10;;;;;;;106.43;95.57;;;7.60;99.90;;;;;;4881434;29;20155;-86
2022/02/04 06:22:11;;;;;;;95.95;85.45;;;7.60;99.90;;;;;;4883728;29;20695;-85
2022/02/04 06:24:37;;;;;;;92.65;76.22;;;7.70;99.90;;;;;;4883839;29;20182;-86
2022/02/04 06:27:04;;;;;;;93.00;78.32;;;7.60;99.90;;;;;;4883293;29;20195;-86
2022/02/04 06:29:33;;;;;;;109.15;98.18;;;7.60;99.90;;;;;;4881424;29;20179;-86
2022/02/04 06:31:59;;;;;;;104.97;94.03;;;7.70;99.90;;;;;;4883011;29;20186;-86
2022/02/04 06:34:30;;;;;;;123.80;112.03;;;7.70;99.90;;;;;;4882643;29;20166;-85
2022/02/04 06:36:56;;;;;;;119.32;107.70;;;7.70;99.90;;;;;;4882982;29;20744;-85
2022/02/04 06:39:22;;;;;;;125.90;114.23;;;7.70;99.90;;;;;;4883252;29;20166;-86
2022/02/04 06:41:48;;;;;;;136.13;124.17;;;7.80;99.90;;;;;;4881697;29;20652;-86
2022/02/04 06:44:14;;;;;;;118.60;107.03;;;7.70;99.90;;;;;;4880894;29;20201;-86
2022/02/04 06:46:40;;;;;;;110.57;99.20;;;7.70;99.90;;;;;;4880832;29;20203;-86
2022/02/04 06:49:05;;;;;;;115.30;104.00;;;7.70;99.90;;;;;;4882192;29;20442;-85
2022/02/04 06:51:46;;;;;;;124.77;112.67;;;7.70;99.90;;;;;;4881196;29;20194;-86
2022/02/04 06:54:14;;;;;;;128.43;116.03;;;7.70;99.90;;;;;;4880907;29;20179;-86
2022/02/04 06:56:40;;;;;;;123.20;111.65;;;7.70;99.90;;;;;;4881872;29;20170;-86
2022/02/04 06:59:06;;;;;;;116.33;105.03;;;7.70;99.90;;;;;;4884431;29;20167;-85
2022/02/04 07:01:34;;;;;;;101.38;85.40;;;7.70;99.90;;;;;;4885750;29;20447;-85
2022/02/04 07:04:05;;;;;;;96.45;85.00;;;7.60;99.90;;;;;;4887211;29;20151;-85
2022/02/04 07:06:37;;;;;;;89.88;67.20;;;7.70;99.90;;;;;;4885235;29;20195;-85
2022/02/04 07:12:04;;;;;;;95.07;83.43;;;7.60;99.90;;;;;;4886233;29;20655;-85
2022/02/04 07:14:44;;;;;;;95.97;83.97;;;7.70;99.90;;;;;;4886353;29;20662;-85
2022/02/04 07:19:53;;;;;;;94.72;73.45;;;7.50;99.90;;;;;;4886337;29;20154;-84
2022/02/04 07:22:22;;;;;;;92.95;79.00;;;7.50;99.90;;;;;;4886551;29;20170;-84
2022/02/04 07:24:50;;;;;;;92.90;65.82;;;7.50;99.90;;;;;;4883907;29;20229;-85
2022/02/04 07:27:16;;;;;;;107.20;94.68;;;7.50;99.90;;;;;;4887051;29;20531;-85
2022/02/04 07:29:45;;;;;;;81.63;44.97;;;7.50;99.90;;;;;;4885557;29;20686;-85
2022/02/04 07:32:17;;;;;;;84.22;49.72;;;7.60;99.90;;;;;;4886186;29;20640;-85
2022/02/04 07:35:01;;;;;;;94.28;78.55;;;7.50;99.90;;;;;;4886703;29;20182;-85
2022/02/04 07:43:04;;;;;;;158.75;145.63;;;7.40;99.90;;;;;;4882287;29;20238;-85
2022/02/04 07:45:33;;;;;;;113.85;102.40;;;7.40;99.90;;;;;;4887304;29;20218;-85
2022/02/04 07:47:59;;;;;;;90.45;72.95;;;7.60;99.90;;;;;;4887273;29;20174;-85
2022/02/04 07:50:26;;;;;;;98.05;85.70;;;7.60;99.90;;;;;;4886171;29;20203;-86
2022/02/04 07:53:13;;;;;;;88.13;63.33;;;7.60;99.90;;;;;;4965961;23;20302;-86
2022/02/04 07:55:56;;;;;;;126.63;114.55;;;7.60;99.90;;;;;;4888414;29;20190;-86
2022/02/04 08:02:28;;;;;;;91.90;77.43;;;7.60;99.90;;;;;;4867884;29;20247;-86
2022/02/04 08:25:02;;;;;;;80.78;43.08;;;7.70;99.90;;;;;;4853512;29;20714;-86
2022/02/04 08:53:32;;;;;;;80.88;43.08;;;8.00;99.90;;;;;;4830142;29;20193;-85
2022/02/04 08:56:24;;;;;;;93.75;72.85;;;8.00;99.90;;;;;;4809892;29;20620;-87
2022/02/04 09:04:53;;;;;;;85.38;52.03;;;8.20;99.90;;;;;;4807428;29;20204;-86
2022/02/04 09:20:34;;;;;;;81.72;42.80;;;8.60;99.90;;;;;;4794332;30;20522;-87
2022/02/04 09:23:13;;;;;;;84.13;43.63;;;8.60;99.90;;;;;;4793110;30;20746;-87
2022/02/04 09:25:43;;;;;;;87.82;59.83;;;8.60;99.90;;;;;;4869781;29;20274;-87
2022/02/04 09:28:10;;;;;;;87.55;59.15;;;8.70;99.90;;;;;;4884753;29;20183;-85
2022/02/04 09:30:38;;;;;;;90.75;67.47;;;8.70;99.90;;;;;;4880666;29;20208;-86
2022/02/04 09:33:05;;;;;;;90.85;70.60;;;8.70;99.90;;;;;;4882586;29;20187;-85
2022/02/04 09:35:34;;;;;;;90.80;71.65;;;8.80;99.90;;;;;;4882999;29;20243;-86
2022/02/04 09:38:02;;;;;;;83.63;48.08;;;8.90;99.90;;;;;;4883068;29;20171;-86
2022/02/04 09:40:41;;;;;;;;;;;;;;;;;;;;;
2022/02/04 09:43:20;;;;;;;;;;;;;;;;;;;;;
2022/02/04 09:45:54;;;;;;;75.40;25.27;;;9.00;99.90;;;;;;4886464;29;20262;-86
2022/02/04 09:48:20;;;;;;;75.47;26.10;;;9.10;99.90;;;;;;4886012;29;20227;-86
2022/02/04 09:50:49;;;;;;;72.13;16.37;;;9.10;99.90;;;;;;4884868;29;20198;-87
2022/02/04 10:05:50;;;;;;;80.15;39.63;;;9.30;99.90;;;;;;4885883;29;20210;-87
2022/02/04 10:08:19;;;;;;;77.95;32.60;;;9.40;99.90;;;;;;4885890;29;20199;-86
2022/02/04 10:11:22;;;;;;;79.20;28.90;;;9.40;99.90;;;;;;4885869;29;20197;-85
2022/02/04 10:13:50;;;;;;;77.47;34.22;;;9.40;99.90;;;;;;4886016;29;20183;-86
2022/02/04 10:16:38;;;;;;;72.70;14.55;;;9.40;99.90;;;;;;4885414;29;20198;-85
2022/02/04 10:19:25;;;;;;;70.80;12.05;;;9.50;99.90;;;;;;4885244;29;20170;-85
2022/02/04 10:22:02;;;;;;;71.35;11.25;;;9.50;99.90;;;;;;4884990;29;20179;-86
2022/02/04 10:24:30;;;;;;;69.57;9.50;;;9.50;99.90;;;;;;4885351;29;20181;-86
2022/02/04 10:27:16;;;;;;;71.25;9.73;;;9.50;99.90;;;;;;4886287;29;20278;-86
2022/02/04 10:29:52;;;;;;;70.07;10.55;;;9.60;99.90;;;;;;4883785;29;20182;-87
2022/02/04 10:32:24;;;;;;;69.07;10.50;;;9.70;99.90;;;;;;4886107;29;20159;-86
2022/02/04 10:35:05;;;;;;;78.35;31.48;;;9.80;99.90;;;;;;4885148;29;20205;-86
2022/02/04 10:37:37;;;;;;;89.63;55.30;;;9.90;99.90;;;;;;4883935;29;20175;-86
2022/02/04 10:40:32;;;;;;;85.72;57.00;;;9.80;99.90;;;;;;4884921;29;20178;-86
2022/02/04 10:43:49;;;;;;;92.85;59.90;;;9.80;99.90;;;;;;4884216;29;20181;-87
2022/02/04 10:46:08;;;;;;;85.63;54.95;;;9.80;99.90;;;;;;4883815;29;20657;-86
2022/02/04 11:00:17;;;;;;;80.50;32.35;;;9.70;99.90;;;;;;4884758;29;20151;-87
2022/02/04 11:05:21;;;;;;;72.00;18.73;;;9.80;99.90;;;;;;4885086;29;20279;-86
2022/02/04 11:22:10;;;;;;;72.10;19.40;;;9.80;99.90;;;;;;4880860;29;20281;-85
2022/02/04 11:35:54;;;;;;;72.43;19.23;;;9.70;99.90;;;;;;4881618;29;20186;-85
2022/02/04 11:53:54;;;;;;;72.10;19.58;;;9.60;99.90;;;;;;4870087;29;20183;-85
2022/02/04 11:56:23;;;;;;;72.13;16.98;;;9.60;99.90;;;;;;4879527;29;20191;-85
2022/02/04 11:59:02;;;;;;;71.50;16.40;;;9.60;99.90;;;;;;4880824;29;20587;-85
2022/02/04 12:01:46;;;;;;;72.75;17.27;;;9.40;99.90;;;;;;4880955;29;20257;-85
2022/02/04 12:04:20;;;;;;;74.38;17.35;;;9.40;99.90;;;;;;4881060;29;20166;-85
2022/02/04 12:06:47;;;;;;;73.70;21.27;;;9.40;99.90;;;;;;4880818;29;20174;-85
2022/02/04 12:09:16;;;;;;;76.47;19.95;;;9.50;99.90;;;;;;4879853;29;20179;-84
2022/02/04 12:11:46;;;;;;;72.60;17.65;;;9.60;99.90;;;;;;4879991;29;20198;-85
2022/02/04 12:14:12;;;;;;;72.30;16.40;;;9.70;99.90;;;;;;4879538;29;20190;-85
2022/02/04 12:17:04;;;;;;;74.45;16.30;;;9.50;99.90;;;;;;4879658;29;20277;-84
2022/02/04 12:19:38;;;;;;;77.43;29.67;;;9.40;99.90;;;;;;4878617;29;20210;-85
2022/02/04 12:22:06;;;;;;;77.93;30.35;;;9.30;99.90;;;;;;4880620;29;20166;-84
2022/02/04 12:24:34;;;;;;;83.57;36.63;;;9.20;99.90;;;;;;4881702;29;20166;-85
2022/02/04 12:27:37;;;;;;;79.15;21.27;;;9.20;99.90;;;;;;4879730;29;20175;-85
2022/02/04 12:30:32;;;;;;;71.97;14.55;;;9.20;99.90;;;;;;4883346;29;20182;-85
2022/02/04 12:33:01;;;;;;;72.45;14.18;;;9.20;99.90;;;;;;4886263;29;20175;-86
2022/02/04 12:35:28;;;;;;;81.18;18.88;;;9.30;99.90;;;;;;4887556;29;20264;-87
2022/02/04 12:37:54;;;;;;;72.50;17.63;;;9.30;99.90;;;;;;4886299;29;20665;-86
2022/02/04 12:40:50;;;;;;;71.27;13.90;;;9.40;99.90;;;;;;4887201;29;20250;-86
2022/02/04 12:43:26;;;;;;;69.40;11.32;;;9.50;99.90;;;;;;4888176;29;20179;-86
2022/02/04 12:46:10;;;;;;;;;;;;;;;;;;;;;
2022/02/04 12:48:37;;;;;;;71.18;16.88;;;9.40;99.90;;;;;;4886731;29;20242;-86
2022/02/04 12:51:02;;;;;;;72.80;17.98;;;9.40;99.90;;;;;;4886008;29;20210;-85
2022/02/04 12:53:29;;;;;;;70.50;13.70;;;9.30;99.90;;;;;;4886045;29;20210;-86
2022/02/04 12:56:33;;;;;;;69.45;10.63;;;9.40;99.90;;;;;;4884617;29;20262;-86
2022/02/04 12:59:24;;;;;;;70.78;9.73;;;9.50;99.90;;;;;;4885654;29;20250;-85
2022/02/04 13:02:23;;;;;;;68.68;9.07;;;9.60;99.90;;;;;;4886084;29;20159;-86
2022/02/04 13:10:21;;;;;;;71.13;15.85;;;9.30;99.90;;;;;;4885714;29;20222;-85
2022/02/04 13:12:56;;;;;;;73.10;20.27;;;9.30;99.90;;;;;;4885399;29;20174;-86
2022/02/04 13:15:31;;;;;;;71.30;15.82;;;9.20;99.90;;;;;;4885385;29;20670;-86
2022/02/04 13:17:57;;;;;;;73.97;19.75;;;9.30;99.90;;;;;;4885091;29;20582;-86
2022/02/04 13:20:25;;;;;;;71.25;16.00;;;9.30;99.90;;;;;;4884654;29;20174;-86
2022/02/04 13:22:58;;;;;;;74.03;18.77;;;9.30;99.90;;;;;;4885590;29;20257;-86
2022/02/04 13:25:29;;;;;;;73.30;17.17;;;9.40;99.90;;;;;;4885623;29;20563;-86
2022/02/04 13:28:07;;;;;;;72.20;18.35;;;9.30;99.90;;;;;;4885911;29;20178;-85
2022/02/04 13:30:47;;;;;;;73.90;18.80;;;9.40;99.90;;;;;;4885341;29;20229;-86
2022/02/04 13:33:19;;;;;;;73.35;16.13;;;9.30;99.90;;;;;;4884012;29;20178;-85
2022/02/04 13:36:34;;;;;;;71.68;16.17;;;9.40;99.90;;;;;;4885334;29;20187;-85
2022/02/04 13:39:58;;;;;;;72.35;16.52;;;9.40;99.90;;;;;;4884054;29;20183;-86
2022/02/04 13:42:45;;;;;;;71.63;15.77;;;9.50;99.60;;;;;;4885070;29;20532;-86
2022/02/04 13:45:42;;;;;;;69.38;10.50;;;9.50;96.00;;;;;;4884012;29;20218;-86
2022/02/04 13:48:34;;;;;;;71.22;13.35;;;9.50;96.40;;;;;;4885134;29;20199;-86
2022/02/04 13:51:38;;;;;;;72.63;17.05;;;9.50;93.50;;;;;;4883947;29;20190;-86
2022/02/04 13:59:56;;;;;;;73.22;21.45;;;9.70;80.90;;;;;;4865641;23;20238;-86
2022/02/04 14:02:36;;;;;;;72.95;20.67;;;9.70;81.10;;;;;;4886608;29;20151;-86
2022/02/04 14:05:13;;;;;;;73.95;21.73;;;9.80;83.40;;;;;;4886037;29;20667;-86
2022/02/04 14:07:53;;;;;;;74.57;17.13;;;9.90;80.90;;;;;;4871284;29;20175;-86
2022/02/04 14:10:31;;;;;;;75.53;12.30;;;9.90;80.50;;;;;;4884811;29;20212;-87
2022/02/04 14:13:19;;;;;;;74.43;14.30;;;9.90;73.80;;;;;;4885254;29;20651;-86
2022/02/04 14:15:52;;;;;;;70.32;11.65;;;9.90;76.60;;;;;;4886816;29;20269;-86
2022/02/04 14:18:50;;;;;;;70.80;12.93;;;9.80;80.30;;;;;;4883388;29;20174;-85
2022/02/04 14:21:16;;;;;;;75.25;25.35;;;9.80;79.20;;;;;;4884584;29;20155;-83
2022/02/04 14:23:55;;;;;;;74.28;23.90;;;9.60;79.20;;;;;;4883689;29;20674;-84
2022/02/04 14:29:27;;;;;;;74.30;23.70;;;9.60;81.00;;;;;;4886696;29;20187;-86
2022/02/04 14:32:05;;;;;;;75.82;28.60;;;9.60;77.60;;;;;;4885213;29;20241;-88
2022/02/04 14:37:33;;;;;;;76.80;26.50;;;9.50;74.60;;;;;;4886809;29;20162;-85
2022/02/04 14:53:49;;;;;;;74.65;25.65;;;9.50;74.90;;;;;;4885977;29;20250;-87
2022/02/04 15:02:05;;;;;;;76.18;27.98;;;9.50;82.20;;;;;;4884898;29;20276;-87
2022/02/04 15:04:45;;;;;;;73.93;22.92;;;9.40;86.50;;;;;;4882793;29;20591;-87
2022/02/04 15:07:15;;;;;;;76.70;28.40;;;9.30;89.40;;;;;;4882529;29;20197;-87
2022/02/04 15:09:50;;;;;;;74.97;20.67;;;9.30;86.20;;;;;;4882108;29;20205;-87
2022/02/04 15:12:19;;;;;;;79.47;25.15;;;9.30;88.90;;;;;;4882500;29;20168;-87
2022/02/04 15:14:45;;;;;;;71.20;11.43;;;9.30;90.70;;;;;;4882131;29;20229;-87
2022/02/04 15:17:11;;;;;;;71.83;18.90;;;9.20;91.40;;;;;;4883971;29;20167;-88
2022/02/04 15:19:41;;;;;;;72.67;21.13;;;9.30;91.60;;;;;;4883442;29;20403;-87
2022/02/04 15:22:08;;;;;;;88.00;40.05;;;9.30;90.70;;;;;;4883398;29;20167;-88
2022/02/04 15:24:35;;;;;;;72.45;11.80;;;9.30;91.40;;;;;;4882183;29;20171;-87
2022/02/04 15:27:11;;;;;;;71.93;16.70;;;9.20;90.80;;;;;;4882238;29;20170;-87
2022/02/04 15:29:55;;;;;;;72.10;12.98;;;9.30;93.20;;;;;;4882850;29;20174;-87
2022/02/04 15:32:22;;;;;;;70.53;12.88;;;9.30;93.10;;;;;;4884552;29;20182;-87
2022/02/04 15:34:55;;;;;;;70.30;13.65;;;9.20;92.70;;;;;;4882565;29;20214;-88
2022/02/04 15:37:25;;;;;;;70.25;13.20;;;9.20;92.40;;;;;;4882711;29;20159;-87
2022/02/04 15:39:54;;;;;;;70.07;13.65;;;9.30;93.00;;;;;;4883382;29;20151;-87
2022/02/04 15:42:33;;;;;;;71.95;15.45;;;9.30;93.60;;;;;;4884715;29;20205;-87
2022/02/04 15:45:38;;;;;;;73.57;15.73;;;9.40;97.20;;;;;;4915180;23;20223;-87
2022/02/04 16:02:58;;;;;;;;;;;;;;;;;;;;;
2022/02/04 16:05:42;;;;;;;86.88;46.10;;;8.90;99.90;;;;;;4891533;23;20783;-87
2022/02/04 16:19:29;;;;;;;91.65;56.35;;;8.70;99.90;;;;;;4877173;29;20211;-87
2022/02/04 16:35:10;;;;;;;97.38;68.20;;;8.50;99.90;;;;;;4865833;29;20183;-87
2022/02/04 16:38:16;;;;;;;117.88;103.80;;;8.50;99.90;;;;;;4853174;29;20183;-87
2022/02/04 16:48:28;;;;;;;124.18;112.13;;;8.50;99.90;;;;;;4848579;29;20679;-87
2022/02/04 16:51:00;;;;;;;212.00;196.90;;;8.50;99.90;;;;;;4833743;29;20750;-87
2022/02/04 16:53:29;;;;;;;181.35;167.32;;;8.50;99.90;;;;;;4886637;29;20163;-86
2022/02/04 16:56:01;;;;;;;234.02;218.23;;;8.50;99.90;;;;;;4885670;29;20194;-87
2022/02/04 16:58:27;;;;;;;204.52;190.02;;;8.60;99.90;;;;;;4885508;29;20251;-87
2022/02/04 17:01:10;;;;;;;429.37;402.90;;;8.50;99.90;;;;;;4885967;29;20205;-85
2022/02/04 17:03:55;;;;;;;259.67;243.63;;;8.40;99.90;;;;;;4887318;29;20159;-85
2022/02/04 17:06:32;;;;;;;255.10;238.18;;;8.10;99.90;;;;;;4886850;29;20269;-86
2022/02/04 17:12:06;;;;;;;220.52;205.35;;;7.70;99.90;;;;;;4848449;29;20219;-86
2022/02/04 17:17:26;;;;;;;141.07;129.05;;;7.40;99.90;;;;;;3186799;27;20233;-86
2022/02/04 17:20:22;;;;;;;;;;;;;;;;;;;;;
2022/02/04 17:23:03;;;;;;;166.63;153.13;;;7.10;99.90;;;;;;4907170;29;20300;-85
2022/02/04 17:25:34;;;;;;;153.65;141.27;;;7.00;99.90;;;;;;4917634;29;20216;-85
2022/02/04 17:28:03;;;;;;;112.68;101.32;;;7.00;99.90;;;;;;4925962;29;20152;-85
2022/02/04 17:31:13;;;;;;;137.70;125.85;;;6.90;99.90;;;;;;4926775;29;20193;-85
2022/02/04 17:35:01;;;;;;;135.15;123.25;;;6.90;99.90;;;;;;4923757;29;20176;-86
2022/02/04 17:37:41;;;;;;;106.75;95.93;;;6.80;99.90;;;;;;4924381;29;20184;-86
2022/02/04 17:40:20;;;;;;;159.38;146.25;;;6.80;99.90;;;;;;4924853;29;20173;-86
2022/02/04 17:42:49;;;;;;;190.90;176.35;;;6.80;99.90;;;;;;4924514;29;20213;-87
2022/02/04 17:45:44;;;;;;;166.13;152.57;;;6.70;99.90;;;;;;4924336;29;20193;-86
2022/02/04 17:52:52;;;;;;;113.20;102.10;;;6.50;99.90;;;;;;4866321;29;20343;-86
2022/02/04 17:55:34;;;;;;;118.88;107.05;;;6.60;99.90;;;;;;4900558;29;20570;-86
2022/02/04 18:09:38;;;;;;;96.40;84.78;;;6.50;99.90;;;;;;4924726;29;20185;-86
2022/02/04 18:12:14;;;;;;;116.03;104.80;;;6.50;99.90;;;;;;4924369;29;20212;-87
2022/02/04 18:14:43;;;;;;;126.43;114.10;;;6.40;99.90;;;;;;4922578;29;20284;-86
2022/02/04 18:17:19;;;;;;;165.05;152.00;;;6.40;99.90;;;;;;4922010;29;20173;-86
2022/02/04 18:19:51;;;;;;;117.60;106.32;;;6.40;99.90;;;;;;4922143;29;20175;-86
2022/02/04 18:22:31;;;;;;;172.00;158.65;;;6.40;99.90;;;;;;4921898;29;20536;-86
2022/02/04 18:24:59;;;;;;;151.68;138.68;;;6.40;99.90;;;;;;4921767;29;20216;-85
2022/02/04 18:28:00;;;;;;;123.38;111.85;;;6.30;99.90;;;;;;4920903;29;20216;-87
2022/02/04 18:30:51;;;;;;;101.28;90.45;;;6.30;99.90;;;;;;4855927;29;20211;-86
2022/02/04 18:33:46;;;;;;;120.68;108.57;;;6.20;99.90;;;;;;4922098;29;20180;-86
2022/02/04 18:37:06;;;;;;;112.80;101.53;;;6.20;99.90;;;;;;4921344;29;20200;-86
2022/02/04 18:53:14;;;;;;;108.60;97.35;;;5.90;99.90;;;;;;4922767;29;20205;-87
2022/02/04 18:59:09;;;;;;;;;;;;;;;;;;;;;
2022/02/04 19:01:46;;;;;;;90.95;66.40;;;6.00;99.90;;;;;;4920988;29;20741;-87
2022/02/04 19:06:54;;;;;;;87.82;55.72;;;5.90;99.90;;;;;;4907722;23;20238;-86
2022/02/04 19:09:22;;;;;;;87.18;50.55;;;5.90;99.90;;;;;;4884152;29;20574;-86
2022/02/04 19:12:23;;;;;;;81.53;32.10;;;5.80;99.90;;;;;;4884304;29;20201;-86
2022/02/04 19:25:47;;;;;;;75.93;15.35;;;5.70;99.90;;;;;;4872230;29;20289;-86
2022/02/04 19:31:43;;;;;;;;;;;;;;;;;;;;;
2022/02/04 19:37:56;;;;;;;73.05;14.63;;;5.50;99.90;;;;;;4880342;29;20283;-87
2022/02/04 19:45:07;;;;;;;;;;;;;;;;;;;;;
